Yantis, TX (75497)

6:47 AM CDT on March 24, 2017 (GMT -0500)
| | Change Station
Active Advisory: Lake Wind Advisory

Elev -9999 ft 0.00 °N, 0.00 °E | Updated 4 minutes ago

Mostly Cloudy
Mostly Cloudy
°F
Feels Like °F
N
Wind Variable Wind from North
Gusts mph

Today
High -- | Low -- °F
--% Chance of Precip.
Yesterday
High -- | Low -- °F
Precip. -- in
Pressure 29.99 in
Visibility 10.0 miles
Clouds Scattered Clouds 3400 ft
Mostly Cloudy 4100 ft
Overcast 5000 ft
Dew Point Not available.
Humidity Not available.
Rainfall --
Snow Depth Not available.
7:20 AM 7:36 PM
Waning Crescent, 16% visible
METAR KJDD 241135Z AUTO 17005KT 10SM SCT034 BKN041 OVC050 20/15 A2999 RMK AO2
Pressure 29.99 in
Visibility 10.0 miles
Clouds Scattered Clouds 3400 ft
Mostly Cloudy 4100 ft
Overcast 5000 ft
Dew Point Not available.
Humidity Not available.
Rainfall --
Snow Depth Not available.
7:20 AM 7:36 PM
Waning Crescent, 16% visible
METAR KJDD 241135Z AUTO 17005KT 10SM SCT034 BKN041 OVC050 20/15 A2999 RMK AO2

Get Your Daily Forecast Email!

Thanks for signing up!

Be on the lookout for a verification email in your inbox.

You'll start receiving severe weather alerts in your inbox..

×

10-Day Weather Forecast

Almanac

Astronomy

Mar. 24, 2017 Rise Set
Actual Time
Civil Twilight
Nautical Twilight
Astronomical Twilight
Moon
Length of Visible Light
Length of Day
Tomorrow will be .
, % of the Moon is Illuminated

Today's Extremes

State Highs State Lows

Community

WunderPhotos

Upload Photos

1,962,540 photos uploaded!

WunderBlog® & News

Nearby

Air Quality

  Air Quality AQ Index Pollutant
Not available.

Snow Depth

Station Depth Elevation

Earthquake Activity

City Distance Mag. Time & Date
Minimum magnitude displayed is 2.5.

Earthquake Activity

City Distance Mag. Time & Date
Minimum magnitude displayed is 2.5.

Coastal Water Temperatures

Place Temperature

Stations

Nearby Weather Stations

Station Location Temp. Windchill Dew Point Humidity Wind Precip. Elev Updated Type
                   

Watches & Warnings

Lake Wind Advisory
Issued: 5:16 AM CDT Mar. 24, 2017 – National Weather Service

... Lake Wind Advisory now in effect from 10 am this morning to
1 am CDT Saturday...

* event... south winds will increase to 15 to 25 mph with gusts to
30 to 35 mph today and this evening ahead of a strong surface
low pressure system that will shift east out of the Texas
Panhandle and across Oklahoma. Winds should gradually diminish
from west to east this evening as showers and thunderstorms
spread east across the area.

* Timing... from 10 am today through 1 am CDT Saturday.

* Impact... winds will likely produce a rough chop on area lakes
and open waterways, which may be hazardous to boaters
especially smaller craft.

Precautionary/preparedness actions...

A lake Wind Advisory indicates that winds will cause rough chop
on area lakes. Small boats will be especially prone to capsizing.



15